createdAt,value
2023-01-26T00:01:24.536Z,85.05
2023-01-26T00:03:51.901Z,84.45
2023-01-26T00:06:20.907Z,84.47
2023-01-26T00:08:53.820Z,84.36
2023-01-26T00:11:29.546Z,85.75
2023-01-26T00:14:01.057Z,85.58
2023-01-26T00:16:28.889Z,86.38
2023-01-26T00:19:03.499Z,86.47
2023-01-26T00:21:30.631Z,85.51
2023-01-26T00:23:58.488Z,86.49
2023-01-26T00:26:27.086Z,85.99
2023-01-26T00:28:55.149Z,84.94
2023-01-26T00:31:27.155Z,84.24
2023-01-26T00:33:55.671Z,84.34
2023-01-26T00:36:23.084Z,84.90
2023-01-26T00:38:50.162Z,85.85
2023-01-26T00:41:35.930Z,86.36
2023-01-26T00:44:03.182Z,84.91
2023-01-26T00:46:30.334Z,83.73
2023-01-26T00:48:57.453Z,83.46
2023-01-26T00:51:24.399Z,84.53
2023-01-26T00:53:51.392Z,83.87
2023-01-26T00:56:19.180Z,83.63
2023-01-26T00:58:46.774Z,84.12
2023-01-26T01:01:13.819Z,82.54
2023-01-26T01:03:42.720Z,82.86
2023-01-26T01:06:09.764Z,83.38
2023-01-26T01:08:36.913Z,83.94
2023-01-26T01:11:06.691Z,84.27
2023-01-26T01:13:33.748Z,83.31
2023-01-26T01:16:00.776Z,84.62
2023-01-26T01:18:27.830Z,84.62
2023-01-26T01:20:54.940Z,84.55
2023-01-26T01:23:22.114Z,85.16
2023-01-26T01:25:57.422Z,86.21
2023-01-26T01:28:24.391Z,85.90
2023-01-26T01:30:51.592Z,84.97
2023-01-26T01:33:19.065Z,84.90
2023-01-26T01:35:57.100Z,84.35
2023-01-26T01:38:24.567Z,84.11
2023-01-26T01:40:51.987Z,84.52
2023-01-26T01:43:19.517Z,83.46
2023-01-26T01:45:48.019Z,84.36
2023-01-26T01:49:02.819Z,83.59
2023-01-26T01:51:53.061Z,82.63
2023-01-26T01:54:28.369Z,82.59
2023-01-26T01:57:00.870Z,83.29
2023-01-26T01:59:28.561Z,82.94
2023-01-26T02:01:56.804Z,83.89
2023-01-26T02:04:24.901Z,84.15
2023-01-26T02:06:59.308Z,81.64
2023-01-26T02:09:50.367Z,81.88
2023-01-26T02:12:21.144Z,81.80
2023-01-26T02:14:49.551Z,81.46
2023-01-26T02:17:16.629Z,80.12
2023-01-26T02:20:05.692Z,79.90
2023-01-26T02:22:51.827Z,80.56
2023-01-26T02:25:45.312Z,79.31
2023-01-26T02:28:12.321Z,79.95
2023-01-26T02:30:39.740Z,81.55
2023-01-26T02:33:06.753Z,82.08
2023-01-26T02:35:34.656Z,83.01
2023-01-26T02:38:02.267Z,83.60
2023-01-26T02:40:44.911Z,82.50
2023-01-26T02:43:12.571Z,82.62
2023-01-26T02:45:41.176Z,83.45
2023-01-26T02:48:08.459Z,81.09
2023-01-26T02:50:35.804Z,79.66
2023-01-26T02:53:03.947Z,79.23
2023-01-26T02:55:31.483Z,80.75
2023-01-26T02:58:03.773Z,79.62
2023-01-26T03:00:40.966Z,78.72
2023-01-26T03:03:23.956Z,80.23
2023-01-26T03:05:51.771Z,80.44
2023-01-26T03:08:18.945Z,80.63
2023-01-26T03:10:47.724Z,82.47
2023-01-26T03:13:15.162Z,81.87
2023-01-26T03:15:48.206Z,80.80
2023-01-26T03:18:37.709Z,80.09
2023-01-26T03:21:28.600Z,82.09
2023-01-26T03:24:14.124Z,81.85
2023-01-26T03:27:01.683Z,82.28
2023-01-26T03:29:31.986Z,83.34
2023-01-26T03:32:01.268Z,83.46
2023-01-26T03:34:29.802Z,83.81
2023-01-26T03:36:57.628Z,83.42
2023-01-26T03:39:43.658Z,83.32
2023-01-26T03:42:29.256Z,83.58
2023-01-26T03:45:15.169Z,85.61
2023-01-26T03:48:01.978Z,84.37
2023-01-26T03:50:49.146Z,83.73
2023-01-26T03:53:38.768Z,83.41
2023-01-26T03:56:24.603Z,83.86
2023-01-26T03:59:09.622Z,84.14
2023-01-26T04:02:03.807Z,84.11
2023-01-26T04:04:50.550Z,83.57
2023-01-26T04:07:38.531Z,84.08
2023-01-26T04:10:06.956Z,84.42
2023-01-26T04:12:34.519Z,84.33
2023-01-26T04:15:40.327Z,85.17
2023-01-26T04:18:26.909Z,84.42
2023-01-26T04:21:13.279Z,84.69
2023-01-26T04:23:42.665Z,83.60
2023-01-26T04:26:09.964Z,83.58
2023-01-26T04:28:38.444Z,83.88
2023-01-26T04:31:06.203Z,84.59
2023-01-26T04:33:36.137Z,84.55
2023-01-26T04:36:07.646Z,84.74
2023-01-26T04:38:37.466Z,85.95
2023-01-26T04:41:04.949Z,84.08
2023-01-26T04:43:38.499Z,83.78
2023-01-26T04:46:07.373Z,84.60
2023-01-26T04:48:36.801Z,85.71
2023-01-26T04:51:07.961Z,86.48
2023-01-26T04:53:35.380Z,85.93
2023-01-26T04:56:02.544Z,85.46
2023-01-26T04:58:30.529Z,84.95
2023-01-26T05:00:58.937Z,83.99
2023-01-26T05:03:29.773Z,85.60
2023-01-26T05:05:57.257Z,86.71
2023-01-26T05:08:25.355Z,86.76
2023-01-26T05:10:52.753Z,86.74
2023-01-26T05:13:40.391Z,86.58
2023-01-26T05:16:30.157Z,85.63
2023-01-26T05:19:20.154Z,86.13
2023-01-26T05:22:22.312Z,85.71
2023-01-26T05:25:09.838Z,85.40
2023-01-26T05:27:42.427Z,85.65
2023-01-26T05:30:14.383Z,86.27
2023-01-26T05:32:42.797Z,86.33
2023-01-26T05:35:10.638Z,85.71
2023-01-26T05:37:37.859Z,85.16
2023-01-26T05:40:05.706Z,82.67
2023-01-26T05:42:32.926Z,83.09
2023-01-26T05:45:09.903Z,82.93
2023-01-26T05:47:39.143Z,82.46
2023-01-26T05:50:07.306Z,83.85
2023-01-26T05:52:35.208Z,82.95
2023-01-26T05:55:02.546Z,82.43
2023-01-26T05:57:29.636Z,82.05
2023-01-26T06:00:06.435Z,81.30
2023-01-26T06:02:41.770Z,81.13
2023-01-26T06:05:12.629Z,82.09
2023-01-26T06:07:40.668Z,82.37
2023-01-26T06:10:15.304Z,82.40
2023-01-26T06:13:01.029Z,81.70
2023-01-26T06:16:00.959Z,82.23
2023-01-26T06:18:29.999Z,81.35
2023-01-26T06:21:01.312Z,81.04
2023-01-26T06:23:28.653Z,80.96
2023-01-26T06:26:01.978Z,80.99
2023-01-26T06:28:31.456Z,81.47
2023-01-26T06:31:06.707Z,80.69
2023-01-26T06:33:36.151Z,80.30
2023-01-26T06:36:06.028Z,79.33
2023-01-26T06:38:33.229Z,79.88
2023-01-26T06:41:03.850Z,80.11
2023-01-26T06:43:32.578Z,79.38
2023-01-26T06:46:01.597Z,78.85
2023-01-26T06:48:31.772Z,79.17
2023-01-26T06:51:37.251Z,79.52
2023-01-26T06:54:04.613Z,79.79
2023-01-26T06:56:39.416Z,80.06
2023-01-26T06:59:29.678Z,79.65
2023-01-26T07:02:22.551Z,79.04
2023-01-26T07:04:51.273Z,78.72
2023-01-26T07:07:18.346Z,79.64
2023-01-26T07:09:45.699Z,80.51
2023-01-26T07:12:12.780Z,80.02
2023-01-26T07:14:40.153Z,79.77
2023-01-26T07:17:07.310Z,78.69
2023-01-26T07:19:34.383Z,77.88
2023-01-26T07:22:02.097Z,78.62
2023-01-26T07:24:29.835Z,79.50
2023-01-26T07:26:57.237Z,79.44
2023-01-26T07:29:24.411Z,80.28
2023-01-26T07:31:51.894Z,79.98
2023-01-26T07:34:20.174Z,78.03
2023-01-26T07:36:47.150Z,78.47
2023-01-26T07:39:14.197Z,78.32
2023-01-26T07:41:41.186Z,77.59
2023-01-26T07:44:39.172Z,77.87
2023-01-26T07:47:06.457Z,78.27
2023-01-26T07:49:33.743Z,77.24
2023-01-26T07:52:01.384Z,77.69
2023-01-26T07:54:29.603Z,78.97
2023-01-26T07:56:56.908Z,76.34
2023-01-26T07:59:24.335Z,77.05
2023-01-26T08:01:52.347Z,75.49
2023-01-26T08:04:19.481Z,76.53
2023-01-26T08:06:46.709Z,74.67
2023-01-26T08:09:13.909Z,74.94
2023-01-26T08:11:41.250Z,74.31
2023-01-26T08:14:08.455Z,71.24
2023-01-26T08:16:35.553Z,71.99
2023-01-26T08:19:03.226Z,71.35
2023-01-26T08:21:30.582Z,70.29
2023-01-26T08:24:02.154Z,71.19
2023-01-26T08:26:29.833Z,70.88
2023-01-26T08:28:57.291Z,70.33
2023-01-26T08:31:25.868Z,69.60
2023-01-26T08:33:54.542Z,67.68
2023-01-26T08:36:23.105Z,68.37
